createdAt,value
2018-03-29T00:00:56.667Z,5.00
2018-03-29T00:03:26.272Z,5.23
2018-03-29T00:05:55.981Z,4.97
2018-03-29T00:08:26.408Z,4.83
2018-03-29T00:10:56.016Z,5.43
2018-03-29T00:13:25.727Z,4.67
2018-03-29T00:15:55.339Z,4.93
2018-03-29T00:18:25.043Z,5.13
2018-03-29T00:20:54.751Z,5.13
2018-03-29T00:23:24.394Z,4.47
2018-03-29T00:25:53.965Z,5.23
2018-03-29T00:28:23.674Z,4.90
2018-03-29T00:30:53.392Z,5.33
2018-03-29T00:33:23.199Z,5.67
2018-03-29T00:35:52.804Z,4.63
2018-03-29T00:38:22.513Z,5.40
2018-03-29T00:40:52.122Z,5.47
2018-03-29T00:43:23.673Z,4.80
2018-03-29T00:45:53.382Z,4.60
2018-03-29T00:48:23.092Z,5.17
2018-03-29T00:50:52.699Z,4.80
2018-03-29T00:53:31.320Z,4.03
2018-03-29T00:56:01.342Z,4.60
2018-03-29T00:58:31.146Z,4.60
2018-03-29T01:01:00.753Z,4.90
2018-03-29T01:03:31.896Z,4.83
2018-03-29T01:06:01.605Z,4.03
2018-03-29T01:08:33.512Z,4.30
2018-03-29T01:11:03.177Z,5.23
2018-03-29T01:13:32.884Z,4.97
2018-03-29T01:16:02.497Z,4.57
2018-03-29T01:18:32.610Z,4.50
2018-03-29T01:21:02.470Z,4.67
2018-03-29T01:23:32.031Z,4.97
2018-03-29T01:26:01.744Z,4.63
2018-03-29T01:28:32.011Z,4.40
2018-03-29T01:31:01.775Z,3.90
2018-03-29T01:33:31.483Z,4.67
2018-03-29T01:36:01.398Z,4.00
2018-03-29T01:38:31.106Z,4.93
2018-03-29T01:41:00.816Z,4.50
2018-03-29T01:43:30.730Z,4.40
2018-03-29T01:46:00.439Z,4.10
2018-03-29T01:48:30.150Z,4.67
2018-03-29T01:50:59.900Z,4.40
2018-03-29T01:53:29.684Z,4.80
2018-03-29T01:55:59.380Z,4.40
2018-03-29T01:58:30.524Z,4.43
2018-03-29T02:01:01.666Z,3.97
2018-03-29T02:03:32.400Z,4.07
2018-03-29T02:06:02.110Z,4.07
2018-03-29T02:08:31.823Z,4.07
2018-03-29T02:11:03.684Z,4.90
2018-03-29T02:13:33.432Z,4.83
2018-03-29T02:16:03.201Z,4.53
2018-03-29T02:18:32.910Z,4.40
2018-03-29T02:21:04.208Z,4.33
2018-03-29T02:23:34.585Z,4.30
2018-03-29T02:26:04.857Z,4.60
2018-03-29T02:28:34.616Z,4.30
2018-03-29T02:31:04.326Z,4.30
2018-03-29T02:33:34.037Z,5.23
2018-03-29T02:36:03.852Z,4.37
2018-03-29T02:38:33.564Z,4.33
2018-03-29T02:41:04.904Z,4.03
2018-03-29T02:43:34.717Z,4.80
2018-03-29T02:46:04.837Z,4.63
2018-03-29T02:48:34.619Z,4.30
2018-03-29T02:51:04.459Z,4.13
2018-03-29T02:53:34.376Z,4.43
2018-03-29T02:56:04.088Z,4.20
2018-03-29T02:58:33.793Z,5.10
2018-03-29T03:01:03.572Z,4.70
2018-03-29T03:03:33.724Z,4.60
2018-03-29T03:06:03.640Z,4.80
2018-03-29T03:08:33.859Z,4.47
2018-03-29T03:11:03.569Z,4.57
2018-03-29T03:13:33.278Z,4.63
2018-03-29T03:16:02.988Z,4.57
2018-03-29T03:18:32.698Z,4.87
2018-03-29T03:21:02.308Z,4.57
2018-03-29T03:23:32.118Z,4.50
2018-03-29T03:26:02.748Z,4.70
2018-03-29T03:28:32.572Z,4.50
2018-03-29T03:31:02.987Z,5.07
2018-03-29T03:33:33.310Z,4.93
2018-03-29T03:36:03.019Z,4.90
2018-03-29T03:38:33.547Z,4.50
2018-03-29T03:41:03.359Z,5.10
2018-03-29T03:43:33.228Z,4.20
2018-03-29T03:46:03.189Z,4.60
2018-03-29T03:48:33.928Z,4.37
2018-03-29T03:51:03.630Z,4.97
2018-03-29T03:53:33.443Z,5.10
2018-03-29T03:56:03.154Z,3.90
2018-03-29T03:58:34.911Z,5.00
2018-03-29T04:01:05.387Z,4.40
2018-03-29T04:03:35.148Z,4.20
2018-03-29T04:06:05.019Z,4.10
2018-03-29T04:08:35.599Z,4.50
2018-03-29T04:11:05.518Z,4.30
2018-03-29T04:13:35.934Z,4.80
2018-03-29T04:16:05.643Z,4.67
2018-03-29T04:18:35.556Z,4.80
2018-03-29T04:21:05.369Z,4.57
2018-03-29T04:23:35.094Z,5.03
2018-03-29T04:26:05.402Z,4.87
2018-03-29T04:28:35.724Z,4.57
2018-03-29T04:31:06.971Z,4.73
2018-03-29T04:33:36.578Z,4.33
2018-03-29T04:36:07.929Z,4.10
2018-03-29T04:38:37.744Z,4.60
2018-03-29T04:41:07.757Z,4.50
2018-03-29T04:43:37.467Z,5.13
2018-03-29T04:46:08.955Z,5.43
2018-03-29T04:48:39.341Z,5.30
2018-03-29T04:51:09.254Z,5.00
2018-03-29T04:53:38.965Z,4.90
2018-03-29T04:56:08.934Z,4.30
2018-03-29T04:58:38.998Z,5.43
2018-03-29T05:01:08.852Z,4.73
2018-03-29T05:03:39.442Z,4.57
2018-03-29T05:06:09.151Z,4.90
2018-03-29T05:08:39.371Z,4.67
2018-03-29T05:11:10.207Z,4.30
2018-03-29T05:13:40.942Z,4.70
2018-03-29T05:16:10.761Z,4.80
2018-03-29T05:18:40.462Z,4.47
2018-03-29T05:21:10.069Z,5.27
2018-03-29T05:23:39.883Z,4.50
2018-03-29T05:26:10.513Z,5.47
2018-03-29T05:28:40.237Z,7.00
2018-03-29T05:31:10.114Z,5.93
2018-03-29T05:33:40.051Z,5.40
2018-03-29T05:36:09.828Z,7.77
2018-03-29T05:38:39.783Z,6.87
2018-03-29T05:41:10.922Z,6.87
2018-03-29T05:43:41.245Z,7.20
2018-03-29T05:46:11.261Z,7.87
2018-03-29T05:48:41.005Z,7.83
2018-03-29T05:51:10.828Z,7.23
2018-03-29T05:53:41.414Z,8.20
2018-03-29T05:56:11.756Z,7.00
2018-03-29T05:58:41.448Z,6.77
2018-03-29T06:01:11.465Z,7.07
2018-03-29T06:03:41.095Z,6.67
2018-03-29T06:06:11.806Z,6.10
2018-03-29T06:08:42.232Z,6.77
2018-03-29T06:11:13.632Z,6.90
2018-03-29T06:13:44.312Z,6.23
2018-03-29T06:16:17.246Z,6.97
2018-03-29T06:18:47.213Z,5.57
2018-03-29T06:21:19.177Z,5.97
2018-03-29T06:23:48.896Z,6.30
2018-03-29T06:26:20.160Z,5.43
2018-03-29T06:28:51.991Z,6.47
2018-03-29T06:31:23.134Z,5.80
2018-03-29T06:33:52.846Z,5.63
2018-03-29T06:36:23.270Z,5.73
2018-03-29T06:38:54.210Z,5.90
2018-03-29T06:41:24.737Z,5.53
2018-03-29T06:43:54.452Z,5.50
2018-03-29T06:46:24.275Z,5.63
2018-03-29T06:48:53.970Z,5.10
2018-03-29T06:51:23.679Z,6.03
2018-03-29T06:53:53.494Z,5.97
2018-03-29T06:56:24.854Z,6.73
2018-03-29T06:58:55.162Z,11.53
2018-03-29T07:01:25.282Z,7.77
2018-03-29T07:03:55.715Z,7.53
2018-03-29T07:06:25.621Z,11.60
2018-03-29T07:08:55.332Z,8.77
2018-03-29T07:11:25.041Z,8.83
2018-03-29T07:13:56.492Z,9.87
2018-03-29T07:16:28.184Z,9.43
2018-03-29T07:18:57.957Z,12.03
2018-03-29T07:21:28.180Z,13.47
2018-03-29T07:23:59.321Z,9.90
2018-03-29T07:26:29.140Z,7.07
2018-03-29T07:28:59.142Z,6.30
2018-03-29T07:31:29.682Z,6.00
2018-03-29T07:34:00.312Z,6.67
2018-03-29T07:36:30.303Z,6.87
2018-03-29T07:39:00.140Z,7.10
2018-03-29T07:41:29.850Z,13.03
2018-03-29T07:44:00.384Z,11.00
2018-03-29T07:46:30.757Z,9.87
2018-03-29T07:49:00.411Z,9.70
2018-03-29T07:51:30.131Z,10.10
2018-03-29T07:53:59.830Z,13.03
2018-03-29T07:56:32.042Z,11.27
2018-03-29T07:59:02.878Z,11.63
2018-03-29T08:01:33.567Z,14.50
2018-03-29T08:04:04.988Z,20.00
2018-03-29T08:06:35.549Z,10.10
2018-03-29T08:09:07.287Z,13.17
2018-03-29T08:11:38.103Z,12.00
2018-03-29T08:14:10.205Z,16.63
2018-03-29T08:16:40.016Z,11.90
2018-03-29T08:19:10.343Z,14.00
2018-03-29T08:21:40.536Z,11.73
2018-03-29T08:24:10.577Z,13.27
2018-03-29T08:26:40.959Z,9.40
2018-03-29T08:29:11.126Z,8.47
2018-03-29T08:31:42.166Z,11.60
2018-03-29T08:34:11.981Z,9.80
2018-03-29T08:36:42.047Z,9.43
2018-03-29T08:39:12.421Z,6.30
2018-03-29T08:41:42.308Z,6.20
2018-03-29T08:44:12.527Z,7.03
2018-03-29T08:46:42.637Z,7.30
2018-03-29T08:49:13.461Z,6.23
2018-03-29T08:51:43.526Z,6.10
2018-03-29T08:54:13.238Z,5.60
2018-03-29T08:56:43.171Z,5.03
2018-03-29T08:59:13.065Z,5.57
2018-03-29T09:01:42.830Z,5.50
2018-03-29T09:04:12.690Z,5.70
2018-03-29T09:06:42.500Z,4.70
2018-03-29T09:09:12.313Z,4.20
2018-03-29T09:11:42.328Z,4.23
2018-03-29T09:14:12.049Z,5.13
2018-03-29T09:16:41.851Z,4.30
2018-03-29T09:19:11.923Z,7.03
2018-03-29T09:21:41.684Z,9.07
2018-03-29T09:24:12.352Z,6.77
2018-03-29T09:26:42.125Z,7.30
2018-03-29T09:29:12.396Z,7.23
2018-03-29T09:31:42.161Z,10.40
2018-03-29T09:34:12.072Z,6.97
2018-03-29T09:36:41.884Z,9.10
2018-03-29T09:39:13.336Z,6.80
2018-03-29T09:41:43.043Z,7.47
2018-03-29T09:44:12.766Z,7.23
2018-03-29T09:46:42.566Z,8.93
2018-03-29T09:49:13.195Z,6.83
2018-03-29T09:51:43.109Z,6.90
2018-03-29T09:54:16.306Z,7.40
2018-03-29T09:56:46.013Z,5.90
2018-03-29T09:59:18.085Z,5.73
2018-03-29T10:01:53.114Z,6.17
2018-03-29T10:04:23.135Z,6.60
2018-03-29T10:07:01.139Z,11.10
2018-03-29T10:09:31.103Z,7.00
2018-03-29T10:12:00.958Z,6.13
2018-03-29T10:14:32.257Z,5.87
2018-03-29T10:17:03.553Z,9.17
2018-03-29T10:19:33.477Z,7.00
2018-03-29T10:22:03.483Z,7.80
2018-03-29T10:24:33.624Z,14.73
2018-03-29T10:27:03.518Z,8.47
2018-03-29T10:29:33.235Z,30.20
2018-03-29T10:32:03.290Z,72.83
2018-03-29T10:34:33.206Z,106.60
2018-03-29T10:37:03.070Z,122.20
2018-03-29T10:39:32.885Z,121.37
2018-03-29T10:42:03.515Z,109.20
2018-03-29T10:44:34.155Z,104.93
2018-03-29T10:47:04.062Z,112.63
2018-03-29T10:49:34.385Z,104.73
2018-03-29T10:52:04.306Z,93.83
2018-03-29T10:54:34.013Z,87.30
2018-03-29T10:57:03.838Z,68.37
2018-03-29T10:59:33.533Z,74.00
2018-03-29T11:02:05.096Z,67.43
2018-03-29T11:04:35.408Z,67.43
2018-03-29T11:07:05.832Z,57.87
2018-03-29T11:09:35.899Z,46.60
2018-03-29T11:12:06.788Z,54.13
2018-03-29T11:14:37.521Z,57.73
2018-03-29T11:17:07.475Z,60.33
2018-03-29T11:19:37.606Z,33.07
2018-03-29T11:22:07.368Z,36.10
2018-03-29T11:24:37.384Z,44.37
2018-03-29T11:27:07.506Z,45.30
2018-03-29T11:29:37.622Z,34.83
2018-03-29T11:32:07.537Z,26.47
2018-03-29T11:34:37.401Z,22.03
2018-03-29T11:37:07.630Z,24.03
2018-03-29T11:39:38.203Z,23.50
2018-03-29T11:42:08.940Z,16.53
2018-03-29T11:44:38.749Z,18.60
2018-03-29T11:47:08.458Z,17.57
2018-03-29T11:49:39.199Z,15.27
2018-03-29T11:52:08.900Z,17.60
2018-03-29T11:54:40.657Z,8.83
2018-03-29T11:57:10.470Z,12.50
2018-03-29T11:59:41.823Z,10.60
2018-03-29T12:02:14.811Z,8.10
2018-03-29T12:04:45.434Z,9.47
2018-03-29T12:07:15.296Z,5.77
2018-03-29T12:09:45.163Z,8.20
2018-03-29T12:12:16.304Z,8.80
2018-03-29T12:14:46.112Z,16.47
2018-03-29T12:17:15.987Z,10.23
2018-03-29T12:19:45.740Z,10.40
2018-03-29T12:22:15.961Z,15.40
2018-03-29T12:24:45.774Z,12.23
2018-03-29T12:27:16.404Z,7.87
2018-03-29T12:29:46.114Z,11.30
2018-03-29T12:32:15.929Z,12.87
2018-03-29T12:34:45.699Z,4.90
2018-03-29T12:37:15.448Z,9.63
2018-03-29T12:39:46.591Z,6.60
2018-03-29T12:42:16.402Z,9.97
2018-03-29T12:44:46.728Z,12.77
2018-03-29T12:47:16.491Z,8.87
2018-03-29T12:49:46.156Z,9.60
2018-03-29T12:52:15.862Z,12.70
2018-03-29T12:54:54.577Z,22.20
2018-03-29T12:58:07.915Z,32.00
2018-03-29T13:00:38.336Z,22.30
2018-03-29T13:03:08.203Z,16.67
2018-03-29T13:05:38.822Z,14.93
2018-03-29T13:08:08.858Z,17.33
2018-03-29T13:10:40.359Z,12.23
2018-03-29T13:13:10.876Z,12.30
2018-03-29T13:15:40.689Z,12.93
2018-03-29T13:18:10.785Z,6.67
2018-03-29T13:20:40.828Z,6.87
2018-03-29T13:23:10.905Z,12.57
2018-03-29T13:25:41.433Z,5.63
2018-03-29T13:28:11.182Z,5.63
2018-03-29T13:30:40.995Z,6.50
2018-03-29T13:33:10.909Z,6.70
2018-03-29T13:35:41.684Z,4.03
2018-03-29T13:38:11.607Z,5.03
2018-03-29T13:40:41.274Z,7.60
2018-03-29T13:43:13.639Z,7.97
2018-03-29T13:45:43.552Z,4.17
2018-03-29T13:48:13.374Z,4.17
2018-03-29T13:50:45.738Z,4.10
2018-03-29T13:53:15.661Z,7.63
2018-03-29T13:55:46.793Z,4.80
2018-03-29T13:58:16.606Z,5.30
2018-03-29T14:00:46.621Z,4.83
2018-03-29T14:03:16.436Z,3.90
2018-03-29T14:05:46.292Z,3.93
2018-03-29T14:08:16.779Z,4.23
2018-03-29T14:10:46.701Z,4.07
2018-03-29T14:13:17.423Z,4.47
2018-03-29T14:15:47.286Z,3.37
2018-03-29T14:18:17.064Z,3.47
2018-03-29T14:20:47.398Z,5.23
2018-03-29T14:23:18.415Z,3.70
2018-03-29T14:25:48.326Z,3.50
2018-03-29T14:28:19.062Z,4.13
2018-03-29T14:30:50.304Z,3.20
2018-03-29T14:33:21.243Z,3.47
2018-03-29T14:35:51.440Z,3.73
2018-03-29T14:38:21.380Z,3.60
2018-03-29T14:40:51.912Z,5.90
2018-03-29T14:43:22.747Z,3.50
2018-03-29T14:45:52.559Z,2.93
2018-03-29T14:48:23.699Z,9.27
2018-03-29T14:50:53.995Z,3.57
2018-03-29T14:53:23.734Z,3.27
2018-03-29T14:55:53.547Z,3.60
2018-03-29T14:58:24.089Z,3.20
2018-03-29T15:00:54.977Z,3.60
2018-03-29T15:03:25.515Z,7.23
2018-03-29T15:05:55.458Z,7.07
2018-03-29T15:08:25.580Z,10.40
2018-03-29T15:10:56.308Z,8.23
2018-03-29T15:13:26.017Z,12.40
2018-03-29T15:15:57.986Z,7.23
2018-03-29T15:18:29.024Z,7.90
2018-03-29T15:20:58.836Z,6.57
2018-03-29T15:23:28.953Z,7.37
2018-03-29T15:25:58.769Z,7.83
2018-03-29T15:28:29.295Z,11.10
2018-03-29T15:30:59.309Z,6.40
2018-03-29T15:33:29.179Z,7.20
2018-03-29T15:35:59.220Z,8.37
2018-03-29T15:38:29.462Z,8.03
2018-03-29T15:40:59.787Z,4.37
2018-03-29T15:43:29.644Z,5.23
2018-03-29T15:46:01.356Z,6.23
2018-03-29T15:48:32.397Z,6.27
2018-03-29T15:51:02.208Z,5.57
2018-03-29T15:53:31.919Z,5.03
2018-03-29T15:56:01.833Z,5.00
2018-03-29T15:58:32.000Z,4.10
2018-03-29T16:01:02.686Z,4.50
2018-03-29T16:03:33.419Z,6.83
2018-03-29T16:06:03.949Z,4.53
2018-03-29T16:08:33.966Z,4.40
2018-03-29T16:11:03.939Z,4.73
2018-03-29T16:13:33.804Z,5.37
2018-03-29T16:16:05.141Z,4.20
2018-03-29T16:18:34.805Z,3.30
2018-03-29T16:21:04.523Z,7.40
2018-03-29T16:23:35.361Z,3.57
2018-03-29T16:26:05.516Z,3.37
2018-03-29T16:28:35.279Z,3.27
2018-03-29T16:31:05.180Z,3.83
2018-03-29T16:33:35.059Z,3.70
2018-03-29T16:36:05.583Z,4.47
2018-03-29T16:38:35.445Z,4.50
2018-03-29T16:41:05.107Z,3.80
2018-03-29T16:43:35.538Z,4.07
2018-03-29T16:46:05.548Z,3.20
2018-03-29T16:48:35.359Z,7.63
2018-03-29T16:51:05.998Z,4.03
2018-03-29T16:53:35.699Z,8.77
2018-03-29T16:56:05.518Z,4.40
2018-03-29T16:58:36.660Z,3.63
2018-03-29T17:01:08.110Z,28.00
2018-03-29T17:03:37.917Z,19.93
2018-03-29T17:06:08.242Z,28.70
2018-03-29T17:08:38.156Z,25.23
2018-03-29T17:11:08.193Z,19.60
2018-03-29T17:13:42.150Z,23.30
2018-03-29T17:16:11.995Z,13.97
2018-03-29T17:18:42.023Z,24.90
2018-03-29T17:21:12.858Z,22.80
2018-03-29T17:23:42.807Z,17.47
2018-03-29T17:26:14.315Z,18.50
2018-03-29T17:28:44.176Z,19.90
2018-03-29T17:31:14.655Z,20.17
2018-03-29T17:33:44.988Z,17.70
2018-03-29T17:36:14.996Z,18.03
2018-03-29T17:38:44.717Z,22.00
2018-03-29T17:41:15.603Z,14.30
2018-03-29T17:43:45.976Z,14.93
2018-03-29T17:46:15.989Z,12.30
2018-03-29T17:48:45.798Z,13.73
2018-03-29T17:51:15.510Z,15.13
2018-03-29T17:53:45.732Z,14.07
2018-03-29T17:56:16.876Z,13.90
2018-03-29T17:58:46.890Z,13.50
2018-03-29T18:01:17.623Z,13.27
2018-03-29T18:03:47.583Z,15.17
2018-03-29T18:06:17.511Z,12.20
2018-03-29T18:08:47.389Z,9.83
2018-03-29T18:11:18.158Z,9.47
2018-03-29T18:13:48.131Z,13.63
2018-03-29T18:16:18.477Z,8.83
2018-03-29T18:18:50.199Z,9.13
2018-03-29T18:21:20.115Z,11.70
2018-03-29T18:23:49.973Z,13.03
2018-03-29T18:26:19.746Z,8.40
2018-03-29T18:28:52.153Z,8.83
2018-03-29T18:31:22.374Z,8.00
2018-03-29T18:33:52.252Z,7.60
2018-03-29T18:36:22.099Z,7.80
2018-03-29T18:38:52.482Z,11.00
2018-03-29T18:41:22.957Z,8.97
2018-03-29T18:43:52.927Z,6.50
2018-03-29T18:46:23.456Z,6.07
2018-03-29T18:48:53.276Z,5.73
2018-03-29T18:51:23.083Z,7.33
2018-03-29T18:53:53.779Z,6.87
2018-03-29T18:56:23.653Z,5.40
2018-03-29T18:58:53.976Z,6.00
2018-03-29T19:01:24.361Z,6.23
2018-03-29T19:03:54.185Z,7.87
2018-03-29T19:06:24.862Z,6.30
2018-03-29T19:08:55.354Z,9.60
2018-03-29T19:11:25.160Z,6.20
2018-03-29T19:13:55.242Z,5.10
2018-03-29T19:16:25.473Z,4.80
2018-03-29T19:18:56.027Z,4.73
2018-03-29T19:21:28.807Z,4.80
2018-03-29T19:23:58.724Z,5.33
2018-03-29T19:26:28.843Z,5.07
2018-03-29T19:29:00.396Z,4.97
2018-03-29T19:31:30.209Z,4.20
2018-03-29T19:34:00.226Z,4.60
2018-03-29T19:36:30.858Z,3.70
2018-03-29T19:39:01.146Z,4.47
2018-03-29T19:41:31.196Z,5.40
2018-03-29T19:44:01.225Z,7.20
2018-03-29T19:46:31.083Z,5.13
2018-03-29T19:49:02.578Z,5.13
2018-03-29T19:51:32.580Z,5.80
2018-03-29T19:54:02.784Z,4.67
2018-03-29T19:56:32.637Z,4.63
2018-03-29T20:00:16.987Z,4.83
2018-03-29T20:02:47.005Z,7.90
2018-03-29T20:05:17.328Z,14.57
2018-03-29T20:07:48.921Z,9.37
2018-03-29T20:10:19.495Z,7.97
2018-03-29T20:12:49.840Z,7.73
2018-03-29T20:15:21.336Z,8.27
2018-03-29T20:17:51.210Z,9.47
2018-03-29T20:20:22.959Z,8.00
2018-03-29T20:22:53.559Z,7.63
2018-03-29T20:25:25.230Z,5.40
2018-03-29T20:27:56.388Z,6.63
2018-03-29T20:30:26.099Z,17.63
2018-03-29T20:32:56.196Z,11.27
2018-03-29T20:35:26.338Z,8.70
2018-03-29T20:37:56.147Z,7.47
2018-03-29T20:40:26.177Z,6.90
2018-03-29T20:42:56.083Z,7.17
2018-03-29T20:45:26.003Z,7.50
2018-03-29T20:47:55.923Z,8.20
2018-03-29T20:50:25.723Z,6.67
2018-03-29T20:52:57.066Z,5.87
2018-03-29T20:55:26.879Z,5.23
2018-03-29T20:57:57.000Z,6.63
2018-03-29T21:00:27.191Z,5.63
2018-03-29T21:02:58.060Z,5.20
2018-03-29T21:05:28.584Z,5.57
2018-03-29T21:07:58.556Z,5.47
2018-03-29T21:10:28.744Z,4.70
2018-03-29T21:12:58.638Z,4.87
2018-03-29T21:15:28.652Z,5.30
2018-03-29T21:17:58.980Z,4.07
2018-03-29T21:20:28.789Z,4.60
2018-03-29T21:22:59.256Z,4.50
2018-03-29T21:25:30.463Z,4.70
2018-03-29T21:28:01.398Z,3.87
2018-03-29T21:30:31.312Z,4.30
2018-03-29T21:33:01.263Z,3.57
2018-03-29T21:35:31.347Z,3.87
2018-03-29T21:38:02.289Z,4.13
2018-03-29T21:40:32.616Z,4.17
2018-03-29T21:43:02.532Z,4.60
2018-03-29T21:45:32.231Z,3.97
2018-03-29T21:48:02.556Z,3.27
2018-03-29T21:50:37.600Z,3.30
2018-03-29T21:53:10.967Z,3.60
2018-03-29T21:55:41.006Z,3.00
2018-03-29T21:58:11.018Z,3.77
2018-03-29T22:00:40.729Z,3.20
2018-03-29T22:03:10.650Z,2.80
2018-03-29T22:05:41.274Z,2.87
2018-03-29T22:08:11.192Z,2.90
2018-03-29T22:10:43.414Z,3.80
2018-03-29T22:13:13.217Z,3.37
2018-03-29T22:15:43.228Z,2.70
2018-03-29T22:18:13.842Z,2.97
2018-03-29T22:20:45.013Z,3.93
2018-03-29T22:23:15.026Z,2.47
2018-03-29T22:25:45.056Z,3.13
2018-03-29T22:28:15.529Z,2.87
2018-03-29T22:30:45.278Z,2.90
2018-03-29T22:33:15.048Z,2.60
2018-03-29T22:35:44.957Z,3.97
2018-03-29T22:38:14.871Z,2.43
2018-03-29T22:40:44.995Z,2.57
2018-03-29T22:43:15.075Z,2.77
2018-03-29T22:45:46.457Z,2.47
2018-03-29T22:48:16.286Z,1.73
2018-03-29T22:50:46.593Z,2.53
2018-03-29T22:53:18.560Z,3.13
2018-03-29T22:55:48.982Z,2.27
2018-03-29T23:01:20.145Z,3.30
2018-03-29T23:03:50.572Z,2.77
2018-03-29T23:06:20.903Z,2.60
2018-03-29T23:08:53.062Z,2.30
2018-03-29T23:11:22.771Z,2.57
2018-03-29T23:13:53.198Z,2.73
2018-03-29T23:16:23.218Z,1.60
2018-03-29T23:18:53.538Z,2.93
2018-03-29T23:21:23.404Z,2.27
2018-03-29T23:23:53.163Z,1.80
2018-03-29T23:26:22.876Z,2.40
2018-03-29T23:28:54.221Z,1.80
2018-03-29T23:31:23.930Z,2.30
2018-03-29T23:33:53.844Z,2.00
2018-03-29T23:36:24.988Z,2.43
2018-03-29T23:38:54.902Z,2.73
2018-03-29T23:41:24.611Z,3.37
2018-03-29T23:43:54.423Z,2.50
2018-03-29T23:46:25.771Z,2.33
2018-03-29T23:48:55.481Z,1.90
2018-03-29T23:51:25.196Z,3.00
2018-03-29T23:53:55.207Z,2.50
2018-03-29T23:56:25.067Z,2.17
2018-03-29T23:58:54.933Z,2.13
